• Join FlightAware (Why Join?)
  • Login
  • US Flag 
07:21AM EDT


 

Airport Tracker/Info


-or-


 

Live Flight TrackerFlight Track Log ✈ N823M ✈ 08-May-2013 ✈ KDVT - KHSD

Flight Track Log - Related Links

Times and Time Zones

All times are in EDT time to prevent confusion due to time zone crossing. See the N823M flight status page for this flight to view local times or setup timezone preferences in your user account.

Time Position Orientation Groundspeed Altitude Reporting Facility
EDT Latitude Longitude Course Direction KTS MPH feet Rate Location/Type
01:41AM 33.6997 -112.1106 332° Northwest 157 181 2,900  Level Albuquerque Center
01:42AM 33.7286 -112.0633 54° Northeast 201 231 5,200 2,220 Climbing Albuquerque Center
01:43AM 33.7558 -112.0100 58° Northeast 191 220 7,400 2,160 Climbing Albuquerque Center
01:44AM 33.7639 -111.9467 81° East 210 242 9,600 2,160 Climbing Albuquerque Center
01:45AM 33.7564 -111.8811 98° East 202 232 11,800 1,980 Climbing Albuquerque Center
01:46AM 33.7494 -111.8122 97° East 206 237 13,600 1,320 Climbing Albuquerque Center
01:47AM 33.7406 -111.7308 97° East 246 283 14,500 1,680 Climbing Albuquerque Center
01:48AM 33.7544 -111.6544 78° East 243 280 17,000 2,280 Climbing Albuquerque Center
01:49AM 33.7786 -111.5650 72° East 237 273 19,100 1,920 Climbing Albuquerque Center
01:50AM 33.8000 -111.4894 71° East 240 276 20,900 1,620 Climbing Albuquerque Center
01:51AM 33.8219 -111.4119 71° East 245 282 22,400 1,380 Climbing Albuquerque Center
01:52AM 33.8444 -111.3278 72° East 258 297 23,700 1,380 Climbing Albuquerque Center
01:53AM 33.8692 -111.2422 71° East 269 310 25,200 1,380 Climbing Albuquerque Center
01:54AM 33.8928 -111.1533 72° East 277 319 26,600 1,320 Climbing Albuquerque Center
01:55AM 33.9172 -111.0639 72° East 282 325 27,900 1,140 Climbing Albuquerque Center
01:56AM 33.9414 -110.9722 72° East 287 330 29,000 1,080 Climbing Albuquerque Center
01:57AM 33.9669 -110.8789 72° East 291 335 30,100 960 Climbing Albuquerque Center
01:58AM 33.9928 -110.7833 72° East 298 343 31,000 900 Climbing Albuquerque Center
01:59AM 34.0206 -110.6797 72° East 304 350 32,000 840 Climbing Albuquerque Center
02:00AM 34.0458 -110.5833 72° East 305 351 32,800 900 Climbing Albuquerque Center
02:01AM 34.0728 -110.4858 72° East 308 354 33,800 840 Climbing Albuquerque Center
02:02AM 34.0989 -110.3881 72° East 309 356 34,500 600 Climbing Albuquerque Center
02:03AM 34.1258 -110.2875 72° East 313 360 35,100 540 Climbing Albuquerque Center
02:04AM 34.1528 -110.1869 72° East 316 364 35,600 720 Climbing Albuquerque Center
02:05AM 34.1817 -110.0764 72° East 319 367 36,600 780 Climbing Albuquerque Center
02:06AM 34.2067 -109.9819 72° East 312 359 37,200 540 Climbing Albuquerque Center
02:07AM 34.2358 -109.8706 72° East 312 359 37,700 480 Climbing Albuquerque Center
02:08AM 34.2606 -109.7750 73° East 311 358 38,200 420 Climbing Albuquerque Center
02:09AM 34.2861 -109.6811 72° East 310 357 38,600 360 Climbing Albuquerque Center
02:10AM 34.3100 -109.5864 73° East 308 354 39,000 180 Climbing Albuquerque Center
02:11AM 34.3386 -109.4756 73° East 308 354 39,000  Level Albuquerque Center
02:12AM 34.3642 -109.3778 72° East 314 361 39,000  Level Albuquerque Center
02:13AM 34.3906 -109.2767 72° East 323 372 39,000  Level Albuquerque Center
02:14AM 34.4214 -109.1542 73° East 334 384 39,000  Level Albuquerque Center
02:15AM 34.4383 -109.0458 79° East 340 391 39,000  Level Albuquerque Center
02:16AM 34.4558 -108.9361 79° East 343 395 39,000 180 Level Albuquerque Center
02:17AM 34.4753 -108.8069 80° East 348 400 39,400 720 Climbing Albuquerque Center
02:18AM 34.4906 -108.7028 80° East 340 391 40,500 720 Climbing Albuquerque Center
02:19AM 34.5044 -108.6100 80° East 317 365 40,900 240 Climbing Albuquerque Center
02:20AM 34.5175 -108.5203 80° East 297 342 41,000  Climbing Albuquerque Center
02:21AM 34.5336 -108.4161 79° East 294 338 41,000  Level Albuquerque Center
02:22AM 34.5481 -108.3147 80° East 300 345 41,000  Level Albuquerque Center
02:23AM 34.5625 -108.2144 80° East 303 349 41,000  Level Albuquerque Center
02:24AM 34.5778 -108.1106 80° East 310 357 41,000  Level Albuquerque Center
02:25AM 34.5922 -108.0061 80° East 313 360 41,000  Level Albuquerque Center
02:26AM 34.6075 -107.9011 80° East 316 364 41,000  Level Albuquerque Center
02:27AM 34.6219 -107.7942 81° East 320 368 41,000  Level Albuquerque Center
02:28AM 34.6367 -107.6889 80° East 319 367 41,000  Level Albuquerque Center
02:29AM 34.6514 -107.5806 81° East 324 373 41,000  Level Albuquerque Center
02:30AM 34.6669 -107.4722 80° East 326 375 41,000  Level Albuquerque Center
02:31AM 34.6811 -107.3622 81° East 329 379 41,000  Level Albuquerque Center
02:32AM 34.6967 -107.2528 80° East 331 381 41,000  Level Albuquerque Center
02:33AM 34.7111 -107.1428 81° East 331 381 41,000  Level Albuquerque Center
02:34AM 34.7258 -107.0314 81° East 335 386 41,000  Level Albuquerque Center
02:35AM 34.7397 -106.9200 81° East 336 387 41,000  Level Albuquerque Center
02:36AM 34.7542 -106.8083 81° East 338 389 41,000  Level Albuquerque Center
02:37AM 34.7689 -106.6967 81° East 338 389 41,000  Level Albuquerque Center
02:38AM 34.7842 -106.5847 81° East 339 390 41,000  Level Albuquerque Center
02:39AM 34.7989 -106.4711 81° East 340 391 41,000  Level Albuquerque Center
02:40AM 34.8172 -106.3336 81° East 344 396 41,000  Level Albuquerque Center
02:41AM 34.8303 -106.2192 82° East 344 396 41,000  Level Albuquerque Center
02:42AM 34.8444 -106.1053 81° East 343 395 41,000  Level Albuquerque Center
02:43AM 34.8578 -105.9911 82° East 343 395 41,000  Level Albuquerque Center
02:44AM 34.8736 -105.8769 80° East 342 394 41,000  Level Albuquerque Center
02:45AM 34.8872 -105.7725 81° East 343 395 41,000  Level Albuquerque Center
02:46AM 34.9000 -105.6564 82° East 343 395 41,000  Level Albuquerque Center
02:47AM 34.9153 -105.5400 81° East 344 396 41,000  Level Albuquerque Center
02:48AM 34.9289 -105.4217 82° East 348 400 41,000  Level Albuquerque Center
02:49AM 34.9425 -105.3028 82° East 349 402 41,000  Level Albuquerque Center
02:50AM 34.9572 -105.1853 81° East 349 402 41,000  Level Albuquerque Center
02:51AM 34.9714 -105.0681 82° East 348 400 41,000  Level Albuquerque Center
02:52AM 34.9850 -104.9492 82° East 350 403 41,000  Level Albuquerque Center
02:53AM 34.9986 -104.8303 82° East 351 404 41,000  Level Albuquerque Center
02:54AM 35.0125 -104.7108 82° East 353 406 41,000  Level Albuquerque Center
02:55AM 35.0261 -104.5906 82° East 355 409 41,000  Level Albuquerque Center
02:56AM 35.0389 -104.4731 82° East 350 403 41,000  Level Albuquerque Center
02:57AM 35.0517 -104.3542 82° East 352 405 41,000  Level Albuquerque Center
02:58AM 35.0647 -104.2358 82° East 353 406 41,000  Level Albuquerque Center
02:59AM 35.0792 -104.1236 81° East 352 405 41,000  Level Albuquerque Center
03:00AM 35.0917 -104.0064 83° East 349 402 41,000  Level Albuquerque Center
03:01AM 35.1044 -103.8839 83° East 350 403 41,000  Level Albuquerque Center
03:02AM 35.1169 -103.7661 83° East 349 402 41,000  Level Albuquerque Center
03:03AM 35.1300 -103.6478 82° East 349 402 41,000  Level Albuquerque Center
03:04AM 35.1417 -103.5289 83° East 350 403 41,000  Level Albuquerque Center
03:05AM 35.1542 -103.4092 83° East 353 406 41,000  Level Albuquerque Center
03:06AM 35.1669 -103.2900 82° East 352 405 41,000  Level Albuquerque Center
03:07AM 35.1789 -103.1703 83° East 352 405 41,000  Level Albuquerque Center
03:08AM 35.1914 -103.0494 83° East 354 407 41,000  Level Albuquerque Center
03:09AM 35.2028 -102.9183 84° East 354 407 41,000  Level Albuquerque Center
03:10AM 35.2069 -102.7989 88° East 353 406 41,000  Level Albuquerque Center
03:11AM 35.2025 -102.6803 93° East 351 404 41,000  Level Albuquerque Center
03:12AM 35.2000 -102.5600 91° East 354 407 41,000  Level Albuquerque Center
03:13AM 35.1983 -102.4408 91° East 353 406 41,000  Level Albuquerque Center
03:14AM 35.1947 -102.3211 92° East 353 406 41,000  Level Albuquerque Center
03:15AM 35.1917 -102.2031 92° East 350 403 41,000  Level Albuquerque Center
03:16AM 35.1903 -102.0825 91° East 355 409 41,000  Level Albuquerque Center
03:17AM 35.1878 -101.9633 91° East 353 406 41,000  Level Albuquerque Center
03:18AM 35.1867 -101.8411 91° East 355 409 41,000  Level Albuquerque Center
03:19AM 35.1844 -101.7192 91° East 356 410 41,000  Level Albuquerque Center
03:20AM 35.1839 -101.5986 90° East 353 406 41,000  Level Albuquerque Center
03:21AM 35.1825 -101.4781 91° East 354 407 41,000  Level Albuquerque Center
03:22AM 35.1817 -101.3569 90° East 356 410 41,000  Level Albuquerque Center
03:23AM 35.1797 -101.2497 91° East 360 414 41,000  Level Albuquerque Center
03:24AM 35.1803 -101.1286 90° East 358 412 41,000  Level Albuquerque Center
03:25AM 35.1811 -101.0064 89° East 360 414 41,000  Level Albuquerque Center
03:26AM 35.1814 -100.8839 90° East 361 415 41,000  Level Albuquerque Center
03:27AM 35.1811 -100.7611 90° East 362 417 41,000  Level Albuquerque Center
03:28AM 35.1789 -100.6381 91° East 363 418 41,000  Level Albuquerque Center
03:29AM 35.1778 -100.5158 91° East 361 415 41,000  Level Albuquerque Center
03:30AM 35.1761 -100.3744 91° East 362 417 41,000  Level Albuquerque Center
03:31AM 35.1711 -100.2517 93° East 362 417 41,000 -600 Level Albuquerque Center
03:32AM 35.1664 -100.1281 93° East 364 419 39,900 -1,500 Descending Albuquerque Center
03:33AM 35.1575 -99.9919 95° East 389 448 38,000 -1,980 Descending Albuquerque Center
03:34AM 35.1469 -99.8608 96° East 391 450 36,000 -1,980 Descending Albuquerque Center
03:35AM 35.1372 -99.7322 95° East 385 443 34,100 -1,920 Descending Albuquerque Center
03:36AM 35.1306 -99.6083 94° East 373 429 32,200 -1,860 Descending Albuquerque Center
03:37AM 35.1239 -99.4836 94° East 369 425 30,400 -1,800 Descending Albuquerque Center
03:38AM 35.1194 -99.3933 93° East 358 412 29,000 -1,740 Descending Fort Worth Center
03:39AM 35.1189 -99.2817 90° East 344 396 27,300 -1,740 Descending Fort Worth Center
03:40AM 35.1186 -99.1700 90° East 333 383 25,600 -1,620 Descending Fort Worth Center
03:41AM 35.1264 -99.0608 85° East 321 369 24,100 -1,500 Descending Fort Worth Center
03:42AM 35.1319 -98.9544 86° East 316 364 22,700 -1,500 Descending Fort Worth Center
03:43AM 35.1372 -98.8453 87° East 316 364 21,100 -1,620 Descending Fort Worth Center
03:44AM 35.1428 -98.7339 86° East 316 364 19,500 -1,560 Descending Fort Worth Center
03:45AM 35.1478 -98.6297 87° East 332 382 18,200 -1,440 Descending Fort Worth Center
03:46AM 35.1531 -98.5156 87° East 320 368 16,700 -1,380 Descending Fort Worth Center
03:47AM 35.1644 -98.4167 82° East 315 362 15,300 -1,440 Descending Fort Worth Center
03:48AM 35.1756 -98.3128 83° East 305 351 13,900 -1,380 Descending Fort Worth Center
03:49AM 35.2200 -98.2319 56° Northeast 280 322 12,600 -1,500 Descending Fort Worth Center
03:50AM 35.2706 -98.1611 49° Northeast 272 313 11,000 -1,560 Descending Fort Worth Center
03:51AM 35.3208 -98.0928 48° Northeast 272 313 9,500 -1,500 Descending Fort Worth Center
03:52AM 35.3714 -98.0244 48° Northeast 272 313 8,100 -1,500 Descending Fort Worth Center
03:53AM 35.4217 -97.9586 47° Northeast 267 307 6,600 -1,500 Descending Fort Worth Center
03:54AM 35.4636 -97.8875 54° Northeast 267 307 5,100 -1,320 Descending Fort Worth Center
03:55AM 35.4703 -97.8011 85° East 241 277 4,000 -1,080 Descending Fort Worth Center
03:56AM 35.4789 -97.7169 83° East 241 277 3,000 -780 Descending Fort Worth Center
03:57AM 35.5228 -97.6992 18° North 191 220 2,500 -660 Descending Fort Worth Center
03:58AM 35.5644 -97.7044 354° North 142 163 1,700 -660 Descending Fort Worth Center
03:59AM 35.5914 -97.7072 355° North 120 138 1,200 -540 Descending Fort Worth Center
04:01AM 35.6000 -97.7000 58° Northeast  Level FlightAware Approximate